createdAt,value
2023-01-29T00:01:59.125Z,99193.31
2023-01-29T00:04:26.889Z,99200.22
2023-01-29T00:06:53.790Z,99191.16
2023-01-29T00:09:20.535Z,99195.41
2023-01-29T00:11:47.595Z,99200.31
2023-01-29T00:14:15.112Z,99204.53
2023-01-29T00:16:45.559Z,99193.25
2023-01-29T00:19:12.595Z,99190.16
2023-01-29T00:21:39.584Z,99191.16
2023-01-29T00:24:06.592Z,99200.78
2023-01-29T00:26:33.524Z,99192.44
2023-01-29T00:29:03.472Z,99190.44
2023-01-29T00:31:30.535Z,99183.72
2023-01-29T00:33:57.514Z,99179.66
2023-01-29T00:36:25.655Z,99180.91
2023-01-29T00:38:58.743Z,99184.22
2023-01-29T00:41:48.340Z,99178.06
2023-01-29T00:44:33.863Z,99184.97
2023-01-29T00:47:02.290Z,99184.09
2023-01-29T00:49:30.575Z,99177.03
2023-01-29T00:52:17.050Z,99171.22
2023-01-29T00:54:43.865Z,99168.69
2023-01-29T00:57:10.763Z,99180.88
2023-01-29T00:59:38.073Z,99178.53
2023-01-29T01:02:23.646Z,99175.81
2023-01-29T01:04:50.616Z,99177.59
2023-01-29T01:07:17.541Z,99172.16
2023-01-29T01:10:05.047Z,99174.75
2023-01-29T01:12:32.167Z,99167.16
2023-01-29T01:14:59.303Z,99163.88
2023-01-29T01:17:26.212Z,99160.19
2023-01-29T01:19:53.156Z,99166.16
2023-01-29T01:22:20.335Z,99177.41
2023-01-29T01:24:47.395Z,99179.88
2023-01-29T01:27:14.415Z,99164.19
2023-01-29T01:29:41.728Z,99174.09
2023-01-29T01:32:09.326Z,99166.56
2023-01-29T01:34:36.716Z,99171.13
2023-01-29T01:37:04.745Z,99164.25
2023-01-29T01:39:33.126Z,99159.81
2023-01-29T01:42:00.086Z,99167.25
2023-01-29T01:44:45.695Z,99167.69
2023-01-29T01:47:12.913Z,99156.88
2023-01-29T01:49:40.569Z,99157.50
2023-01-29T01:52:08.497Z,99148.50
2023-01-29T01:54:37.029Z,99155.47
2023-01-29T01:57:16.013Z,99145.03
2023-01-29T01:59:49.173Z,99147.50
2023-01-29T02:02:36.267Z,99145.66
2023-01-29T02:05:21.853Z,99136.88
2023-01-29T02:08:09.013Z,99134.22
2023-01-29T02:10:38.391Z,99132.00
2023-01-29T02:13:06.532Z,99134.44
2023-01-29T02:15:33.602Z,99130.78
2023-01-29T02:18:02.376Z,99122.63
2023-01-29T02:20:37.003Z,99119.56
2023-01-29T02:23:23.563Z,99123.44
2023-01-29T02:26:11.796Z,99117.28
2023-01-29T02:29:18.913Z,99115.28
2023-01-29T02:31:48.412Z,99102.59
2023-01-29T02:34:32.594Z,99098.31
2023-01-29T02:37:09.631Z,99093.81
2023-01-29T02:40:04.223Z,99092.78
2023-01-29T02:42:37.038Z,99081.13
2023-01-29T02:45:26.180Z,99091.97
2023-01-29T02:48:00.979Z,99086.47
2023-01-29T02:50:30.756Z,99091.97
2023-01-29T02:53:09.780Z,99071.09
2023-01-29T02:55:47.293Z,99074.94
2023-01-29T02:58:17.830Z,99066.16
2023-01-29T03:00:46.114Z,99069.84
2023-01-29T03:03:17.437Z,99063.69
2023-01-29T03:05:55.215Z,99059.59
2023-01-29T03:08:37.272Z,99055.28
2023-01-29T03:11:08.501Z,99064.72
2023-01-29T03:13:42.017Z,99045.09
2023-01-29T03:16:19.420Z,99042.44
2023-01-29T03:18:54.066Z,99045.53
2023-01-29T03:21:43.640Z,99035.13
2023-01-29T03:24:32.850Z,99023.47
2023-01-29T03:27:20.673Z,99023.91
2023-01-29T03:30:08.253Z,99024.09
2023-01-29T03:32:54.199Z,99015.28
2023-01-29T03:35:38.539Z,99015.88
2023-01-29T03:38:10.449Z,99004.22
2023-01-29T03:40:58.570Z,98998.72
2023-01-29T03:43:35.919Z,98992.38
2023-01-29T03:46:08.806Z,98994.84
2023-01-29T03:48:50.873Z,98989.34
2023-01-29T03:51:41.859Z,98985.69
2023-01-29T03:54:35.189Z,98977.72
2023-01-29T03:57:28.637Z,98964.59
2023-01-29T04:00:09.311Z,98971.56
2023-01-29T04:03:00.442Z,98962.75
2023-01-29T04:05:30.163Z,98966.41
2023-01-29T04:08:14.751Z,98959.66
2023-01-29T04:10:43.591Z,98960.69
2023-01-29T04:13:12.161Z,98955.34
2023-01-29T04:15:46.510Z,98950.25
2023-01-29T04:18:13.694Z,98950.44
2023-01-29T04:21:09.655Z,98943.28
2023-01-29T04:23:36.500Z,98955.56
2023-01-29T04:26:09.672Z,98950.25
2023-01-29T04:28:47.365Z,98959.66
2023-01-29T04:31:14.669Z,98944.53
2023-01-29T04:33:56.869Z,98943.50
2023-01-29T04:36:42.608Z,98950.66
2023-01-29T04:39:17.550Z,98950.47
2023-01-29T04:41:54.726Z,98944.13
2023-01-29T04:44:34.265Z,98941.31
2023-01-29T04:47:06.186Z,98937.81
2023-01-29T04:49:36.328Z,98934.34
2023-01-29T04:52:03.140Z,98939.84
2023-01-29T04:54:33.003Z,98941.66
2023-01-29T04:57:23.347Z,98938.19
2023-01-29T05:00:10.398Z,98933.69
2023-01-29T05:02:38.420Z,98932.06
2023-01-29T05:05:06.321Z,98930.22
2023-01-29T05:07:36.220Z,98912.63
2023-01-29T05:10:04.658Z,98917.94
2023-01-29T05:12:31.593Z,98916.09
2023-01-29T05:15:01.184Z,98925.09
2023-01-29T05:17:28.320Z,98920.78
2023-01-29T05:19:57.352Z,98923.66
2023-01-29T05:22:26.864Z,98930.81
2023-01-29T05:24:53.700Z,98929.78
2023-01-29T05:27:41.226Z,98926.31
2023-01-29T05:30:09.400Z,98924.28
2023-01-29T05:32:36.315Z,98925.09
2023-01-29T05:35:03.350Z,98929.59
2023-01-29T05:37:30.242Z,98933.28
2023-01-29T05:39:57.309Z,98928.16
2023-01-29T05:42:24.409Z,98935.31
2023-01-29T05:44:51.314Z,98923.84
2023-01-29T05:47:21.374Z,98926.72
2023-01-29T05:49:48.243Z,98933.66
2023-01-29T05:52:20.858Z,98936.31
2023-01-29T05:54:48.372Z,98932.84
2023-01-29T05:57:18.535Z,98939.81
2023-01-29T05:59:45.596Z,98937.16
2023-01-29T06:02:12.616Z,98938.16
2023-01-29T06:04:39.625Z,98929.16
2023-01-29T06:07:06.594Z,98935.31
2023-01-29T06:09:33.501Z,98942.66
2023-01-29T06:12:00.330Z,98942.03
2023-01-29T06:14:29.074Z,98943.06
2023-01-29T06:16:55.974Z,98931.59
2023-01-29T06:19:22.903Z,98927.72
2023-01-29T06:21:49.761Z,98926.50
2023-01-29T06:24:16.772Z,98912.00
2023-01-29T06:27:08.667Z,98913.66
2023-01-29T06:29:36.681Z,98902.81
2023-01-29T06:32:03.676Z,98910.16
2023-01-29T06:34:30.549Z,98909.34
2023-01-29T06:36:57.568Z,98902.81
2023-01-29T06:39:28.499Z,98904.91
2023-01-29T06:41:55.290Z,98907.38
2023-01-29T06:44:22.974Z,98912.09
2023-01-29T06:46:49.768Z,98918.22
2023-01-29T06:49:16.729Z,98911.50
2023-01-29T06:51:43.576Z,98910.28
2023-01-29T06:54:11.009Z,98908.03
2023-01-29T06:56:37.889Z,98903.34
2023-01-29T06:59:04.797Z,98895.97
2023-01-29T07:01:36.039Z,98892.28
2023-01-29T07:04:03.877Z,98888.63
2023-01-29T07:06:30.879Z,98876.75
2023-01-29T07:08:57.855Z,98870.25
2023-01-29T07:11:24.829Z,98872.50
2023-01-29T07:13:51.760Z,98871.47
2023-01-29T07:16:19.465Z,98874.75
2023-01-29T07:18:46.826Z,98876.19
2023-01-29T07:21:13.800Z,98881.31
2023-01-29T07:23:40.833Z,98882.75
2023-01-29T07:26:07.676Z,98885.63
2023-01-29T07:28:43.490Z,98880.50
2023-01-29T07:31:13.690Z,98878.66
2023-01-29T07:33:40.669Z,98876.63
2023-01-29T07:36:12.370Z,98870.91
2023-01-29T07:38:39.798Z,98866.81
2023-01-29T07:41:08.371Z,98869.69
2023-01-29T07:43:35.750Z,98868.91
2023-01-29T07:46:04.152Z,98857.63
2023-01-29T07:48:31.828Z,98860.31
2023-01-29T07:50:59.375Z,98858.06
2023-01-29T07:53:27.185Z,98847.19
2023-01-29T07:55:57.722Z,98844.75
2023-01-29T07:58:24.861Z,98839.63
2023-01-29T08:00:51.803Z,98839.84
2023-01-29T08:03:20.389Z,98837.81
2023-01-29T08:05:47.586Z,98847.03
2023-01-29T08:08:14.879Z,98854.59
2023-01-29T08:10:42.239Z,98835.75
2023-01-29T08:13:11.406Z,98843.31
2023-01-29T08:15:39.383Z,98836.97
2023-01-29T08:18:06.772Z,98832.69
2023-01-29T08:20:33.798Z,98828.78
2023-01-29T08:23:02.053Z,98828.16
2023-01-29T08:25:29.623Z,98822.22
2023-01-29T08:28:00.984Z,98822.41
2023-01-29T08:30:29.735Z,98816.03
2023-01-29T08:32:56.694Z,98819.13
2023-01-29T08:35:24.172Z,98819.13
2023-01-29T08:38:04.072Z,98818.69
2023-01-29T08:40:32.472Z,98823.00
2023-01-29T08:43:02.150Z,98826.91
2023-01-29T08:45:30.485Z,98828.34
2023-01-29T08:47:57.529Z,98820.56
2023-01-29T08:50:24.679Z,98812.78
2023-01-29T08:53:08.252Z,98812.38
2023-01-29T08:55:36.808Z,98811.75
2023-01-29T08:58:08.050Z,98814.44
2023-01-29T09:00:35.279Z,98808.50
2023-01-29T09:03:02.385Z,98797.84
2023-01-29T09:05:29.713Z,98799.88
2023-01-29T09:08:06.997Z,98804.41
2023-01-29T09:10:34.607Z,98806.03
2023-01-29T09:13:01.797Z,98795.78
2023-01-29T09:15:28.735Z,98805.22
2023-01-29T09:17:57.613Z,98809.72
2023-01-29T09:20:24.709Z,98823.25
2023-01-29T09:22:53.804Z,98813.22
2023-01-29T09:25:20.873Z,98810.16
2023-01-29T09:27:48.889Z,98793.75
2023-01-29T09:30:16.289Z,98789.88
2023-01-29T09:32:53.032Z,98796.63
2023-01-29T09:35:20.685Z,98787.19
2023-01-29T09:37:48.345Z,98781.66
2023-01-29T09:40:26.902Z,98772.63
2023-01-29T09:42:57.829Z,98770.59
2023-01-29T09:45:26.905Z,98769.56
2023-01-29T09:47:56.493Z,98772.44
2023-01-29T09:50:38.661Z,98780.63
2023-01-29T09:53:05.940Z,98780.84
2023-01-29T09:55:51.890Z,98770.38
2023-01-29T09:58:27.560Z,98766.47
2023-01-29T10:00:54.524Z,98756.84
2023-01-29T10:03:39.917Z,98754.41
2023-01-29T10:06:25.704Z,98761.34
2023-01-29T10:08:55.711Z,98747.22
2023-01-29T10:11:28.713Z,98743.75
2023-01-29T10:14:11.110Z,98736.16
2023-01-29T10:16:54.479Z,98744.38
2023-01-29T10:19:36.134Z,98723.69
2023-01-29T10:22:08.403Z,98733.72
2023-01-29T10:24:53.909Z,98713.00
2023-01-29T10:27:21.923Z,98704.03
2023-01-29T10:29:54.701Z,98686.19
2023-01-29T10:32:34.106Z,98691.50
2023-01-29T10:35:28.200Z,98688.63
2023-01-29T10:38:02.064Z,98674.25
2023-01-29T10:40:29.312Z,98673.41
2023-01-29T10:43:20.429Z,98677.06
2023-01-29T10:45:57.523Z,98667.44
2023-01-29T10:48:39.348Z,98661.47
2023-01-29T10:51:41.915Z,98651.41
2023-01-29T10:54:17.328Z,98654.44
2023-01-29T10:57:07.354Z,98649.72
2023-01-29T10:59:54.716Z,98647.91
2023-01-29T11:02:22.837Z,98645.06
2023-01-29T11:04:50.044Z,98635.03
2023-01-29T11:07:18.449Z,98634.44
2023-01-29T11:09:48.475Z,98626.84
2023-01-29T11:12:16.946Z,98640.41
2023-01-29T11:14:51.961Z,98638.72
2023-01-29T11:17:27.176Z,98638.28
2023-01-29T11:19:58.109Z,98632.16
2023-01-29T11:22:50.506Z,98622.94
2023-01-29T11:25:19.067Z,98633.59
2023-01-29T11:27:54.963Z,98634.22
2023-01-29T11:30:30.785Z,98631.13
2023-01-29T11:33:01.062Z,98633.19
2023-01-29T11:35:30.434Z,98624.53
2023-01-29T11:38:06.985Z,98624.50
2023-01-29T11:40:36.727Z,98624.28
2023-01-29T11:43:13.777Z,98625.25
2023-01-29T11:45:41.027Z,98618.69
2023-01-29T11:48:14.559Z,98607.84
2023-01-29T11:50:41.481Z,98623.94
2023-01-29T11:53:23.644Z,98621.31
2023-01-29T11:55:56.033Z,98617.06
2023-01-29T11:58:34.677Z,98608.88
2023-01-29T12:01:02.896Z,98609.91
2023-01-29T12:03:45.065Z,98598.03
2023-01-29T12:06:34.101Z,98604.94
2023-01-29T12:09:02.671Z,98600.00
2023-01-29T12:11:33.854Z,98580.69
2023-01-29T12:14:01.877Z,98604.06
2023-01-29T12:16:29.054Z,98594.66
2023-01-29T12:19:14.840Z,98586.88
2023-01-29T12:21:53.090Z,98598.63
2023-01-29T12:24:46.755Z,98591.09
2023-01-29T12:27:23.027Z,98591.53
2023-01-29T12:29:53.123Z,98593.97
2023-01-29T12:32:38.560Z,98586.63
2023-01-29T12:35:28.246Z,98597.09
2023-01-29T12:38:01.065Z,98601.00
2023-01-29T12:40:34.934Z,98597.09
2023-01-29T12:43:05.912Z,98594.63
2023-01-29T12:45:38.747Z,98610.78
2023-01-29T12:48:08.708Z,98593.81
2023-01-29T12:51:08.093Z,98602.22
2023-01-29T12:53:39.074Z,98596.28
2023-01-29T12:56:18.347Z,98593.88
2023-01-29T12:58:51.323Z,98591.03
2023-01-29T13:01:18.875Z,98593.69
2023-01-29T13:03:50.498Z,98595.13
2023-01-29T13:06:20.695Z,98585.50
2023-01-29T13:08:58.757Z,98589.59
2023-01-29T13:11:28.478Z,98586.13
2023-01-29T13:13:59.781Z,98585.72
2023-01-29T13:16:39.668Z,98571.81
2023-01-29T13:19:45.626Z,98570.78
2023-01-29T13:22:35.535Z,98573.84
2023-01-29T13:25:05.652Z,98582.44
2023-01-29T13:27:47.967Z,98580.38
2023-01-29T13:30:38.078Z,98568.47
2023-01-29T13:33:12.811Z,98571.56
2023-01-29T13:35:50.361Z,98566.84
2023-01-29T13:38:24.044Z,98559.69
2023-01-29T13:41:00.597Z,98566.41
2023-01-29T13:43:28.861Z,98567.06
2023-01-29T13:45:56.295Z,98568.09
2023-01-29T13:49:05.169Z,98571.16
2023-01-29T13:51:47.499Z,98565.66
2023-01-29T13:54:18.387Z,98561.59
2023-01-29T13:57:06.305Z,98555.03
2023-01-29T13:59:51.227Z,98557.25
2023-01-29T14:02:28.727Z,98555.81
2023-01-29T14:05:18.064Z,98557.44
2023-01-29T14:07:45.358Z,98543.09
2023-01-29T14:10:14.356Z,98546.56
2023-01-29T14:12:52.262Z,98536.53
2023-01-29T14:15:31.575Z,98536.75
2023-01-29T14:18:06.476Z,98528.97
2023-01-29T14:20:48.800Z,98536.13
2023-01-29T14:23:31.570Z,98526.31
2023-01-29T14:26:03.383Z,98533.28
2023-01-29T14:28:53.082Z,98525.09
2023-01-29T14:31:29.616Z,98527.97
2023-01-29T14:34:01.671Z,98529.81
2023-01-29T14:37:00.588Z,98529.59
2023-01-29T14:39:39.359Z,98542.31
2023-01-29T14:42:19.975Z,98529.81
2023-01-29T14:44:57.461Z,98534.34
2023-01-29T14:47:37.409Z,98528.63
2023-01-29T14:50:22.904Z,98523.50
2023-01-29T14:53:23.265Z,98531.06
2023-01-29T14:56:02.054Z,98523.91
2023-01-29T14:58:31.148Z,98518.56
2023-01-29T15:01:01.057Z,98513.69
2023-01-29T15:03:36.961Z,98523.28
2023-01-29T15:06:05.338Z,98524.94
2023-01-29T15:08:39.344Z,98518.78
2023-01-29T15:11:33.641Z,98524.31
2023-01-29T15:14:16.938Z,98519.22
2023-01-29T15:16:46.403Z,98511.00
2023-01-29T15:19:28.909Z,98512.66
2023-01-29T15:22:12.586Z,98514.50
2023-01-29T15:24:41.702Z,98512.03
2023-01-29T15:27:20.356Z,98509.59
2023-01-29T15:29:58.151Z,98505.91
2023-01-29T15:39:43.996Z,98524.78
2023-01-29T15:42:16.038Z,98521.72
2023-01-29T15:44:50.321Z,98521.94
2023-01-29T15:47:31.701Z,98524.16
2023-01-29T15:50:24.935Z,98523.78
2023-01-29T15:53:00.700Z,98526.03
2023-01-29T15:59:09.695Z,98497.19
2023-01-29T16:01:55.597Z,98503.13
2023-01-29T16:05:02.328Z,98503.34
2023-01-29T16:08:27.890Z,98498.81
2023-01-29T16:11:07.630Z,98499.84
2023-01-29T16:13:46.450Z,98497.41
2023-01-29T16:16:46.396Z,98485.13
2023-01-29T16:19:53.002Z,98476.34
2023-01-29T16:23:26.461Z,98490.06
2023-01-29T16:26:18.655Z,98493.13
2023-01-29T16:28:55.612Z,98493.13
2023-01-29T16:31:26.269Z,98498.47
2023-01-29T16:33:56.147Z,98494.16
2023-01-29T16:36:24.984Z,98491.50
2023-01-29T16:38:58.089Z,98481.69
2023-01-29T16:41:27.457Z,98482.28
2023-01-29T16:43:58.735Z,98477.56
2023-01-29T16:46:46.093Z,98489.25
2023-01-29T16:49:26.233Z,98495.38
2023-01-29T16:51:58.062Z,98492.72
2023-01-29T16:54:27.132Z,98491.09
2023-01-29T16:57:00.099Z,98478.81
2023-01-29T16:59:38.158Z,98476.97
2023-01-29T17:02:25.822Z,98464.66
2023-01-29T17:04:59.047Z,98467.31
2023-01-29T17:07:26.596Z,98449.53
2023-01-29T17:09:55.812Z,98454.84
2023-01-29T17:12:26.714Z,98460.97
2023-01-29T17:14:58.819Z,98455.88
2023-01-29T17:17:30.813Z,98448.91
2023-01-29T17:19:59.671Z,98453.63
2023-01-29T17:22:27.029Z,98456.50
2023-01-29T17:24:58.241Z,98436.88
2023-01-29T17:27:34.561Z,98446.91
2023-01-29T17:30:02.445Z,98443.41
2023-01-29T17:32:44.725Z,98448.75
2023-01-29T17:35:15.196Z,98448.75
2023-01-29T17:37:42.902Z,98447.09
2023-01-29T17:40:24.161Z,98449.34
2023-01-29T17:42:51.383Z,98450.38
2023-01-29T17:45:19.170Z,98451.59
2023-01-29T17:47:49.608Z,98450.38
2023-01-29T17:50:25.741Z,98448.09
2023-01-29T17:52:54.180Z,98451.56
2023-01-29T17:55:22.130Z,98449.72
2023-01-29T17:57:49.347Z,98443.38
2023-01-29T18:00:19.598Z,98444.19
2023-01-29T18:02:46.743Z,98453.22
2023-01-29T18:05:14.846Z,98436.66
2023-01-29T18:07:44.683Z,98430.94
2023-01-29T18:10:21.671Z,98437.28
2023-01-29T18:12:52.494Z,98428.06
2023-01-29T18:18:56.002Z,98431.75
2023-01-29T18:21:26.128Z,98432.13
2023-01-29T18:23:53.622Z,98427.41
2023-01-29T18:27:00.573Z,98427.63
2023-01-29T18:30:17.070Z,98417.41
2023-01-29T18:32:49.398Z,98429.31
2023-01-29T18:35:22.578Z,98423.78
2023-01-29T18:38:17.440Z,98415.59
2023-01-29T18:40:45.696Z,98420.91
2023-01-29T18:43:13.806Z,98419.88
2023-01-29T18:45:44.604Z,98417.59
2023-01-29T18:48:20.198Z,98413.69
2023-01-29T18:55:14.441Z,98415.50
2023-01-29T19:01:49.820Z,98421.44
2023-01-29T19:25:22.552Z,98390.03
2023-01-29T19:28:04.815Z,98381.69
2023-01-29T19:30:39.551Z,98385.75
2023-01-29T20:24:20.375Z,98329.69
2023-01-29T20:32:04.465Z,98323.75
2023-01-29T20:44:57.157Z,98319.06
2023-01-29T20:47:24.436Z,98308.28
2023-01-29T20:49:51.446Z,98306.84
2023-01-29T20:52:30.559Z,98314.03
2023-01-29T20:54:58.704Z,98308.91
2023-01-29T20:57:28.364Z,98308.91
2023-01-29T20:59:55.459Z,98305.00
2023-01-29T21:02:24.982Z,98313.81
2023-01-29T21:04:52.049Z,98307.66
2023-01-29T21:07:20.821Z,98311.34
2023-01-29T21:09:48.195Z,98305.81
2023-01-29T21:12:19.991Z,98303.97
2023-01-29T21:14:47.280Z,98307.06
2023-01-29T21:17:26.685Z,98290.50
2023-01-29T21:19:57.348Z,98287.84
2023-01-29T21:22:24.493Z,98282.09
2023-01-29T21:24:59.565Z,98284.53
2023-01-29T21:27:37.764Z,98284.53
2023-01-29T21:30:05.118Z,98287.41
2023-01-29T21:32:32.828Z,98292.75
2023-01-29T21:35:00.281Z,98299.09
2023-01-29T21:37:37.660Z,98295.00
2023-01-29T21:40:05.668Z,98288.06
2023-01-29T21:46:41.258Z,98289.91
2023-01-29T21:49:19.502Z,98286.66
2023-01-29T21:52:17.944Z,98293.22
2023-01-29T21:55:37.047Z,98287.09
2023-01-29T21:58:31.177Z,98281.75
2023-01-29T22:01:18.222Z,98285.44
2023-01-29T22:04:58.268Z,98281.97
